sensor_id;sensor_type;location;lat;lon;timestamp;P1;durP1;ratioP1;P2;durP2;ratioP2
16577;SDS011;8401;52.528;13.340;2022-12-04T00:00:14;63.40;;;30.30;;
16577;SDS011;8401;52.528;13.340;2022-12-04T00:02:40;68.23;;;31.40;;
16577;SDS011;8401;52.528;13.340;2022-12-04T00:05:07;71.33;;;32.53;;
16577;SDS011;8401;52.528;13.340;2022-12-04T00:07:34;64.63;;;29.90;;
16577;SDS011;8401;52.528;13.340;2022-12-04T00:10:00;58.13;;;29.13;;
16577;SDS011;8401;52.528;13.340;2022-12-04T00:12:26;63.23;;;31.13;;
16577;SDS011;8401;52.528;13.340;2022-12-04T00:14:52;68.93;;;31.97;;
16577;SDS011;8401;52.528;13.340;2022-12-04T00:17:17;64.63;;;32.87;;
16577;SDS011;8401;52.528;13.340;2022-12-04T00:19:43;61.63;;;30.37;;
16577;SDS011;8401;52.528;13.340;2022-12-04T00:22:09;64.93;;;31.73;;
16577;SDS011;8401;52.528;13.340;2022-12-04T00:24:34;61.37;;;30.40;;
16577;SDS011;8401;52.528;13.340;2022-12-04T00:27:00;65.43;;;30.27;;
16577;SDS011;8401;52.528;13.340;2022-12-04T00:29:26;63.23;;;31.83;;
16577;SDS011;8401;52.528;13.340;2022-12-04T00:31:52;67.90;;;32.20;;
16577;SDS011;8401;52.528;13.340;2022-12-04T00:34:18;71.83;;;33.13;;
16577;SDS011;8401;52.528;13.340;2022-12-04T00:36:44;67.87;;;33.77;;
16577;SDS011;8401;52.528;13.340;2022-12-04T00:39:09;63.97;;;31.30;;
16577;SDS011;8401;52.528;13.340;2022-12-04T00:41:35;65.97;;;30.87;;
16577;SDS011;8401;52.528;13.340;2022-12-04T00:44:01;67.80;;;34.07;;
16577;SDS011;8401;52.528;13.340;2022-12-04T00:46:27;66.20;;;31.00;;
16577;SDS011;8401;52.528;13.340;2022-12-04T00:48:53;64.37;;;31.93;;
16577;SDS011;8401;52.528;13.340;2022-12-04T00:51:23;66.60;;;30.97;;
16577;SDS011;8401;52.528;13.340;2022-12-04T00:53:50;64.10;;;32.20;;
16577;SDS011;8401;52.528;13.340;2022-12-04T00:56:20;65.40;;;31.50;;
16577;SDS011;8401;52.528;13.340;2022-12-04T00:58:50;65.03;;;32.70;;
16577;SDS011;8401;52.528;13.340;2022-12-04T01:01:18;61.30;;;30.27;;
16577;SDS011;8401;52.528;13.340;2022-12-04T01:03:45;60.00;;;30.80;;
16577;SDS011;8401;52.528;13.340;2022-12-04T01:08:49;64.03;;;30.07;;
16577;SDS011;8401;52.528;13.340;2022-12-04T01:11:17;68.30;;;32.60;;
16577;SDS011;8401;52.528;13.340;2022-12-04T01:13:44;67.63;;;31.67;;
16577;SDS011;8401;52.528;13.340;2022-12-04T01:19:09;64.27;;;31.97;;
16577;SDS011;8401;52.528;13.340;2022-12-04T01:21:36;64.23;;;31.73;;
16577;SDS011;8401;52.528;13.340;2022-12-04T01:24:02;67.60;;;31.43;;
16577;SDS011;8401;52.528;13.340;2022-12-04T01:26:28;66.13;;;32.07;;
16577;SDS011;8401;52.528;13.340;2022-12-04T01:28:54;64.40;;;31.43;;
16577;SDS011;8401;52.528;13.340;2022-12-04T01:31:20;67.10;;;30.47;;
16577;SDS011;8401;52.528;13.340;2022-12-04T01:33:47;68.13;;;32.03;;
16577;SDS011;8401;52.528;13.340;2022-12-04T01:36:14;67.03;;;32.50;;
16577;SDS011;8401;52.528;13.340;2022-12-04T01:38:45;70.07;;;33.67;;
16577;SDS011;8401;52.528;13.340;2022-12-04T01:41:20;73.37;;;33.70;;
16577;SDS011;8401;52.528;13.340;2022-12-04T01:46:41;71.00;;;31.83;;
16577;SDS011;8401;52.528;13.340;2022-12-04T01:49:12;73.27;;;33.23;;
16577;SDS011;8401;52.528;13.340;2022-12-04T01:51:43;73.13;;;31.00;;
16577;SDS011;8401;52.528;13.340;2022-12-04T01:54:22;68.40;;;33.90;;
16577;SDS011;8401;52.528;13.340;2022-12-04T01:56:54;75.50;;;35.07;;
16577;SDS011;8401;52.528;13.340;2022-12-04T01:59:36;69.80;;;34.50;;
16577;SDS011;8401;52.528;13.340;2022-12-04T02:02:12;68.10;;;31.57;;
16577;SDS011;8401;52.528;13.340;2022-12-04T02:04:40;75.17;;;32.13;;
16577;SDS011;8401;52.528;13.340;2022-12-04T02:07:07;77.00;;;32.50;;
16577;SDS011;8401;52.528;13.340;2022-12-04T02:09:33;70.27;;;33.67;;
16577;SDS011;8401;52.528;13.340;2022-12-04T02:14:43;76.80;;;34.80;;
16577;SDS011;8401;52.528;13.340;2022-12-04T02:17:14;77.13;;;34.37;;
16577;SDS011;8401;52.528;13.340;2022-12-04T02:30:33;76.37;;;32.97;;
16577;SDS011;8401;52.528;13.340;2022-12-04T02:33:05;73.37;;;34.43;;
16577;SDS011;8401;52.528;13.340;2022-12-04T02:35:45;68.43;;;33.83;;
16577;SDS011;8401;52.528;13.340;2022-12-04T02:38:26;77.63;;;33.97;;
16577;SDS011;8401;52.528;13.340;2022-12-04T02:41:05;75.63;;;33.90;;
16577;SDS011;8401;52.528;13.340;2022-12-04T02:46:12;80.77;;;36.73;;
16577;SDS011;8401;52.528;13.340;2022-12-04T02:48:45;76.93;;;35.47;;
16577;SDS011;8401;52.528;13.340;2022-12-04T02:51:14;86.37;;;35.17;;
16577;SDS011;8401;52.528;13.340;2022-12-04T02:53:44;72.10;;;34.87;;
16577;SDS011;8401;52.528;13.340;2022-12-04T02:56:15;76.33;;;33.00;;
16577;SDS011;8401;52.528;13.340;2022-12-04T02:59:04;70.27;;;31.40;;
16577;SDS011;8401;52.528;13.340;2022-12-04T03:01:40;71.40;;;33.60;;
16577;SDS011;8401;52.528;13.340;2022-12-04T03:06:42;73.13;;;33.33;;
16577;SDS011;8401;52.528;13.340;2022-12-04T03:09:15;78.17;;;35.37;;
16577;SDS011;8401;52.528;13.340;2022-12-04T03:11:58;75.63;;;34.20;;
16577;SDS011;8401;52.528;13.340;2022-12-04T03:14:55;81.30;;;34.23;;
16577;SDS011;8401;52.528;13.340;2022-12-04T03:17:30;74.90;;;34.17;;
16577;SDS011;8401;52.528;13.340;2022-12-04T03:20:04;75.70;;;35.07;;
16577;SDS011;8401;52.528;13.340;2022-12-04T03:22:35;88.83;;;35.97;;
16577;SDS011;8401;52.528;13.340;2022-12-04T03:25:05;81.50;;;37.20;;
16577;SDS011;8401;52.528;13.340;2022-12-04T03:32:39;86.30;;;37.50;;
16577;SDS011;8401;52.528;13.340;2022-12-04T03:35:08;77.10;;;35.43;;
16577;SDS011;8401;52.528;13.340;2022-12-04T03:37:38;89.20;;;37.30;;
16577;SDS011;8401;52.528;13.340;2022-12-04T03:40:19;78.90;;;33.70;;
16577;SDS011;8401;52.528;13.340;2022-12-04T03:43:18;76.90;;;32.33;;
16577;SDS011;8401;52.528;13.340;2022-12-04T03:53:55;78.60;;;33.37;;
16577;SDS011;8401;52.528;13.340;2022-12-04T03:56:31;77.07;;;34.93;;
16577;SDS011;8401;52.528;13.340;2022-12-04T03:59:21;76.30;;;35.73;;
16577;SDS011;8401;52.528;13.340;2022-12-04T04:01:52;68.27;;;31.20;;
16577;SDS011;8401;52.528;13.340;2022-12-04T04:04:22;71.47;;;30.67;;
16577;SDS011;8401;52.528;13.340;2022-12-04T04:06:56;72.97;;;31.57;;
16577;SDS011;8401;52.528;13.340;2022-12-04T04:09:28;72.33;;;32.57;;
16577;SDS011;8401;52.528;13.340;2022-12-04T04:12:05;79.83;;;34.13;;
16577;SDS011;8401;52.528;13.340;2022-12-04T04:14:37;75.07;;;32.83;;
16577;SDS011;8401;52.528;13.340;2022-12-04T04:17:27;65.40;;;30.83;;
16577;SDS011;8401;52.528;13.340;2022-12-04T04:20:22;68.20;;;31.20;;
16577;SDS011;8401;52.528;13.340;2022-12-04T04:23:11;73.87;;;33.27;;
16577;SDS011;8401;52.528;13.340;2022-12-04T04:25:57;68.27;;;30.87;;
16577;SDS011;8401;52.528;13.340;2022-12-04T04:28:33;69.60;;;31.23;;
16577;SDS011;8401;52.528;13.340;2022-12-04T04:31:11;66.70;;;31.03;;
16577;SDS011;8401;52.528;13.340;2022-12-04T04:33:48;71.50;;;32.70;;
16577;SDS011;8401;52.528;13.340;2022-12-04T04:36:23;67.93;;;33.60;;
16577;SDS011;8401;52.528;13.340;2022-12-04T04:44:40;68.83;;;31.63;;
16577;SDS011;8401;52.528;13.340;2022-12-04T04:47:16;65.97;;;31.17;;
16577;SDS011;8401;52.528;13.340;2022-12-04T04:49:48;72.50;;;32.93;;
16577;SDS011;8401;52.528;13.340;2022-12-04T04:52:16;65.93;;;32.50;;
16577;SDS011;8401;52.528;13.340;2022-12-04T04:54:45;69.63;;;31.90;;
16577;SDS011;8401;52.528;13.340;2022-12-04T04:57:11;72.07;;;32.23;;
16577;SDS011;8401;52.528;13.340;2022-12-04T04:59:37;62.47;;;31.17;;
16577;SDS011;8401;52.528;13.340;2022-12-04T05:02:03;71.17;;;33.57;;
16577;SDS011;8401;52.528;13.340;2022-12-04T05:04:28;69.30;;;31.63;;
16577;SDS011;8401;52.528;13.340;2022-12-04T05:06:54;68.10;;;33.03;;
16577;SDS011;8401;52.528;13.340;2022-12-04T05:09:20;67.77;;;30.93;;
16577;SDS011;8401;52.528;13.340;2022-12-04T05:11:45;72.37;;;33.60;;
16577;SDS011;8401;52.528;13.340;2022-12-04T05:14:11;75.00;;;32.20;;
16577;SDS011;8401;52.528;13.340;2022-12-04T05:16:37;71.10;;;31.50;;
16577;SDS011;8401;52.528;13.340;2022-12-04T05:19:03;75.27;;;34.33;;
16577;SDS011;8401;52.528;13.340;2022-12-04T05:21:47;73.70;;;33.53;;
16577;SDS011;8401;52.528;13.340;2022-12-04T05:24:13;77.93;;;34.40;;
16577;SDS011;8401;52.528;13.340;2022-12-04T05:26:38;71.47;;;32.93;;
16577;SDS011;8401;52.528;13.340;2022-12-04T05:29:04;65.77;;;30.80;;
16577;SDS011;8401;52.528;13.340;2022-12-04T05:31:30;66.73;;;31.80;;
16577;SDS011;8401;52.528;13.340;2022-12-04T05:33:55;72.40;;;33.30;;
16577;SDS011;8401;52.528;13.340;2022-12-04T05:36:21;66.83;;;31.87;;
16577;SDS011;8401;52.528;13.340;2022-12-04T05:38:47;63.47;;;30.33;;
16577;SDS011;8401;52.528;13.340;2022-12-04T05:41:12;64.70;;;31.20;;
16577;SDS011;8401;52.528;13.340;2022-12-04T05:43:38;72.37;;;31.03;;
16577;SDS011;8401;52.528;13.340;2022-12-04T05:46:05;65.57;;;31.17;;
16577;SDS011;8401;52.528;13.340;2022-12-04T05:48:32;72.83;;;32.27;;
16577;SDS011;8401;52.528;13.340;2022-12-04T05:50:59;66.23;;;31.87;;
16577;SDS011;8401;52.528;13.340;2022-12-04T05:53:25;72.57;;;32.77;;
16577;SDS011;8401;52.528;13.340;2022-12-04T05:55:57;66.20;;;31.83;;
16577;SDS011;8401;52.528;13.340;2022-12-04T05:58:24;70.30;;;31.17;;
16577;SDS011;8401;52.528;13.340;2022-12-04T06:00:50;67.57;;;30.30;;
16577;SDS011;8401;52.528;13.340;2022-12-04T06:03:16;69.70;;;32.60;;
16577;SDS011;8401;52.528;13.340;2022-12-04T06:05:42;69.13;;;30.87;;
16577;SDS011;8401;52.528;13.340;2022-12-04T06:08:07;64.63;;;31.90;;
16577;SDS011;8401;52.528;13.340;2022-12-04T06:10:33;69.60;;;31.33;;
16577;SDS011;8401;52.528;13.340;2022-12-04T06:12:59;64.13;;;31.00;;
16577;SDS011;8401;52.528;13.340;2022-12-04T06:15:31;68.90;;;32.07;;
16577;SDS011;8401;52.528;13.340;2022-12-04T06:18:00;66.87;;;30.80;;
16577;SDS011;8401;52.528;13.340;2022-12-04T06:20:26;66.10;;;30.47;;
16577;SDS011;8401;52.528;13.340;2022-12-04T06:22:52;61.77;;;29.00;;
16577;SDS011;8401;52.528;13.340;2022-12-04T06:25:17;65.43;;;30.30;;
16577;SDS011;8401;52.528;13.340;2022-12-04T06:27:43;68.07;;;31.53;;
16577;SDS011;8401;52.528;13.340;2022-12-04T06:30:09;69.77;;;30.53;;
16577;SDS011;8401;52.528;13.340;2022-12-04T06:32:34;65.73;;;31.00;;
16577;SDS011;8401;52.528;13.340;2022-12-04T06:35:00;68.77;;;31.30;;
16577;SDS011;8401;52.528;13.340;2022-12-04T06:37:26;67.17;;;32.50;;
16577;SDS011;8401;52.528;13.340;2022-12-04T06:39:51;75.10;;;32.03;;
16577;SDS011;8401;52.528;13.340;2022-12-04T06:42:17;65.23;;;30.97;;
16577;SDS011;8401;52.528;13.340;2022-12-04T06:44:43;64.90;;;29.70;;
16577;SDS011;8401;52.528;13.340;2022-12-04T06:47:08;71.33;;;33.40;;
16577;SDS011;8401;52.528;13.340;2022-12-04T06:49:34;61.77;;;30.80;;
16577;SDS011;8401;52.528;13.340;2022-12-04T06:52:00;73.20;;;32.30;;
16577;SDS011;8401;52.528;13.340;2022-12-04T06:54:25;67.53;;;32.83;;
16577;SDS011;8401;52.528;13.340;2022-12-04T06:56:51;63.17;;;29.60;;
16577;SDS011;8401;52.528;13.340;2022-12-04T06:59:17;71.67;;;32.20;;
16577;SDS011;8401;52.528;13.340;2022-12-04T07:01:42;67.90;;;32.10;;
16577;SDS011;8401;52.528;13.340;2022-12-04T07:04:08;66.43;;;31.73;;
16577;SDS011;8401;52.528;13.340;2022-12-04T07:06:34;60.27;;;28.07;;
16577;SDS011;8401;52.528;13.340;2022-12-04T07:09:06;63.77;;;30.00;;
16577;SDS011;8401;52.528;13.340;2022-12-04T07:11:34;63.20;;;29.97;;
16577;SDS011;8401;52.528;13.340;2022-12-04T07:14:00;67.33;;;31.00;;
16577;SDS011;8401;52.528;13.340;2022-12-04T07:16:26;63.10;;;30.80;;
16577;SDS011;8401;52.528;13.340;2022-12-04T07:18:52;63.13;;;29.17;;
16577;SDS011;8401;52.528;13.340;2022-12-04T07:21:19;60.87;;;31.00;;
16577;SDS011;8401;52.528;13.340;2022-12-04T07:23:48;58.50;;;28.77;;
16577;SDS011;8401;52.528;13.340;2022-12-04T07:26:15;70.87;;;30.50;;
16577;SDS011;8401;52.528;13.340;2022-12-04T07:28:41;60.70;;;29.33;;
16577;SDS011;8401;52.528;13.340;2022-12-04T07:31:10;64.47;;;31.07;;
16577;SDS011;8401;52.528;13.340;2022-12-04T07:33:37;64.73;;;30.30;;
16577;SDS011;8401;52.528;13.340;2022-12-04T07:36:04;65.87;;;31.20;;
16577;SDS011;8401;52.528;13.340;2022-12-04T07:38:31;59.73;;;30.13;;
16577;SDS011;8401;52.528;13.340;2022-12-04T07:40:59;59.87;;;29.43;;
16577;SDS011;8401;52.528;13.340;2022-12-04T07:43:27;62.20;;;29.97;;
16577;SDS011;8401;52.528;13.340;2022-12-04T07:45:53;63.97;;;32.00;;
16577;SDS011;8401;52.528;13.340;2022-12-04T07:48:19;65.50;;;28.93;;
16577;SDS011;8401;52.528;13.340;2022-12-04T07:50:44;57.83;;;28.73;;
16577;SDS011;8401;52.528;13.340;2022-12-04T07:53:10;61.77;;;29.80;;
16577;SDS011;8401;52.528;13.340;2022-12-04T07:55:36;62.43;;;29.57;;
16577;SDS011;8401;52.528;13.340;2022-12-04T07:58:02;62.47;;;28.03;;
16577;SDS011;8401;52.528;13.340;2022-12-04T08:00:27;63.37;;;29.93;;
16577;SDS011;8401;52.528;13.340;2022-12-04T08:02:53;60.30;;;29.87;;
16577;SDS011;8401;52.528;13.340;2022-12-04T08:05:19;66.53;;;29.93;;
16577;SDS011;8401;52.528;13.340;2022-12-04T08:07:44;60.90;;;29.17;;
16577;SDS011;8401;52.528;13.340;2022-12-04T08:10:10;60.30;;;28.87;;
16577;SDS011;8401;52.528;13.340;2022-12-04T08:12:36;61.37;;;28.63;;
16577;SDS011;8401;52.528;13.340;2022-12-04T08:15:02;66.57;;;31.37;;
16577;SDS011;8401;52.528;13.340;2022-12-04T08:17:29;62.33;;;29.57;;
16577;SDS011;8401;52.528;13.340;2022-12-04T08:19:55;62.40;;;28.53;;
16577;SDS011;8401;52.528;13.340;2022-12-04T08:22:20;57.10;;;30.00;;
16577;SDS011;8401;52.528;13.340;2022-12-04T08:24:46;62.13;;;28.57;;
16577;SDS011;8401;52.528;13.340;2022-12-04T08:27:12;64.23;;;30.70;;
16577;SDS011;8401;52.528;13.340;2022-12-04T08:29:37;65.20;;;29.67;;
16577;SDS011;8401;52.528;13.340;2022-12-04T08:32:03;63.23;;;30.63;;
16577;SDS011;8401;52.528;13.340;2022-12-04T08:34:29;65.17;;;30.43;;
16577;SDS011;8401;52.528;13.340;2022-12-04T08:36:55;69.37;;;29.67;;
16577;SDS011;8401;52.528;13.340;2022-12-04T08:39:21;63.20;;;30.67;;
16577;SDS011;8401;52.528;13.340;2022-12-04T08:41:47;67.00;;;32.03;;
16577;SDS011;8401;52.528;13.340;2022-12-04T08:44:12;58.40;;;28.83;;
16577;SDS011;8401;52.528;13.340;2022-12-04T08:46:38;67.90;;;29.33;;
16577;SDS011;8401;52.528;13.340;2022-12-04T08:49:04;57.27;;;29.00;;
16577;SDS011;8401;52.528;13.340;2022-12-04T08:51:30;61.80;;;30.13;;
16577;SDS011;8401;52.528;13.340;2022-12-04T08:54:04;64.73;;;29.40;;
16577;SDS011;8401;52.528;13.340;2022-12-04T08:56:33;67.63;;;30.07;;
16577;SDS011;8401;52.528;13.340;2022-12-04T08:59:00;58.47;;;29.10;;
16577;SDS011;8401;52.528;13.340;2022-12-04T09:01:26;61.10;;;28.83;;
16577;SDS011;8401;52.528;13.340;2022-12-04T09:03:53;60.63;;;28.80;;
16577;SDS011;8401;52.528;13.340;2022-12-04T09:06:19;62.23;;;28.63;;
16577;SDS011;8401;52.528;13.340;2022-12-04T09:08:45;63.67;;;29.47;;
16577;SDS011;8401;52.528;13.340;2022-12-04T09:11:12;54.03;;;27.43;;
16577;SDS011;8401;52.528;13.340;2022-12-04T09:13:40;60.53;;;28.47;;
16577;SDS011;8401;52.528;13.340;2022-12-04T09:16:07;60.53;;;29.10;;
16577;SDS011;8401;52.528;13.340;2022-12-04T09:18:34;68.80;;;31.93;;
16577;SDS011;8401;52.528;13.340;2022-12-04T09:21:02;67.20;;;31.23;;
16577;SDS011;8401;52.528;13.340;2022-12-04T09:23:29;60.10;;;28.07;;
16577;SDS011;8401;52.528;13.340;2022-12-04T09:25:55;57.07;;;28.57;;
16577;SDS011;8401;52.528;13.340;2022-12-04T09:28:21;61.57;;;29.63;;
16577;SDS011;8401;52.528;13.340;2022-12-04T09:30:56;60.90;;;30.73;;
16577;SDS011;8401;52.528;13.340;2022-12-04T09:33:28;62.97;;;28.03;;
16577;SDS011;8401;52.528;13.340;2022-12-04T09:35:54;58.90;;;29.90;;
16577;SDS011;8401;52.528;13.340;2022-12-04T09:38:24;64.63;;;28.60;;
16577;SDS011;8401;52.528;13.340;2022-12-04T09:40:53;64.17;;;31.10;;
16577;SDS011;8401;52.528;13.340;2022-12-04T09:46:30;69.03;;;28.93;;
16577;SDS011;8401;52.528;13.340;2022-12-04T09:49:01;67.07;;;28.20;;
16577;SDS011;8401;52.528;13.340;2022-12-04T09:51:30;60.03;;;27.97;;
16577;SDS011;8401;52.528;13.340;2022-12-04T09:54:01;55.03;;;28.07;;
16577;SDS011;8401;52.528;13.340;2022-12-04T09:56:34;60.00;;;28.73;;
16577;SDS011;8401;52.528;13.340;2022-12-04T09:59:10;64.17;;;28.73;;
16577;SDS011;8401;52.528;13.340;2022-12-04T10:01:47;67.27;;;29.57;;
16577;SDS011;8401;52.528;13.340;2022-12-04T10:04:17;59.10;;;28.87;;
16577;SDS011;8401;52.528;13.340;2022-12-04T10:06:49;59.20;;;27.87;;
16577;SDS011;8401;52.528;13.340;2022-12-04T10:09:39;59.20;;;28.53;;
16577;SDS011;8401;52.528;13.340;2022-12-04T10:22:41;60.50;;;27.00;;
16577;SDS011;8401;52.528;13.340;2022-12-04T10:25:15;60.63;;;30.13;;
16577;SDS011;8401;52.528;13.340;2022-12-04T10:30:21;57.37;;;27.83;;
16577;SDS011;8401;52.528;13.340;2022-12-04T10:33:15;61.80;;;28.03;;
16577;SDS011;8401;52.528;13.340;2022-12-04T10:35:55;52.27;;;24.73;;
16577;SDS011;8401;52.528;13.340;2022-12-04T10:41:13;56.67;;;28.63;;
16577;SDS011;8401;52.528;13.340;2022-12-04T10:43:51;69.00;;;29.40;;
16577;SDS011;8401;52.528;13.340;2022-12-04T10:46:20;59.80;;;28.97;;
16577;SDS011;8401;52.528;13.340;2022-12-04T10:48:56;59.27;;;29.13;;
16577;SDS011;8401;52.528;13.340;2022-12-04T10:51:25;58.20;;;28.30;;
16577;SDS011;8401;52.528;13.340;2022-12-04T10:53:51;59.50;;;29.47;;
16577;SDS011;8401;52.528;13.340;2022-12-04T10:56:18;60.60;;;28.23;;
16577;SDS011;8401;52.528;13.340;2022-12-04T10:59:02;61.83;;;28.90;;
16577;SDS011;8401;52.528;13.340;2022-12-04T11:01:30;58.90;;;27.13;;
16577;SDS011;8401;52.528;13.340;2022-12-04T11:03:59;60.73;;;26.53;;
16577;SDS011;8401;52.528;13.340;2022-12-04T11:06:25;55.27;;;27.60;;
16577;SDS011;8401;52.528;13.340;2022-12-04T11:08:51;60.10;;;27.87;;
16577;SDS011;8401;52.528;13.340;2022-12-04T11:11:28;62.13;;;28.23;;
16577;SDS011;8401;52.528;13.340;2022-12-04T11:14:03;57.37;;;26.67;;
16577;SDS011;8401;52.528;13.340;2022-12-04T11:16:33;63.23;;;28.00;;
16577;SDS011;8401;52.528;13.340;2022-12-04T11:19:17;62.00;;;30.37;;
16577;SDS011;8401;52.528;13.340;2022-12-04T11:21:44;62.23;;;26.60;;
16577;SDS011;8401;52.528;13.340;2022-12-04T11:24:23;56.23;;;26.70;;
16577;SDS011;8401;52.528;13.340;2022-12-04T11:27:04;60.27;;;28.43;;
16577;SDS011;8401;52.528;13.340;2022-12-04T11:29:34;60.40;;;27.63;;
16577;SDS011;8401;52.528;13.340;2022-12-04T11:32:02;61.97;;;27.87;;
16577;SDS011;8401;52.528;13.340;2022-12-04T11:34:34;57.47;;;26.57;;
16577;SDS011;8401;52.528;13.340;2022-12-04T11:37:02;55.77;;;27.07;;
16577;SDS011;8401;52.528;13.340;2022-12-04T11:39:31;56.50;;;27.90;;
16577;SDS011;8401;52.528;13.340;2022-12-04T11:44:51;62.13;;;26.63;;
16577;SDS011;8401;52.528;13.340;2022-12-04T11:47:37;74.50;;;33.33;;
16577;SDS011;8401;52.528;13.340;2022-12-04T11:52:56;74.03;;;32.57;;
16577;SDS011;8401;52.528;13.340;2022-12-04T12:06:35;57.60;;;27.03;;
16577;SDS011;8401;52.528;13.340;2022-12-04T12:12:13;56.43;;;27.20;;
16577;SDS011;8401;52.528;13.340;2022-12-04T12:17:38;61.53;;;30.80;;
16577;SDS011;8401;52.528;13.340;2022-12-04T12:28:33;52.37;;;25.40;;
16577;SDS011;8401;52.528;13.340;2022-12-04T12:36:59;53.67;;;25.70;;
16577;SDS011;8401;52.528;13.340;2022-12-04T12:39:37;52.43;;;26.63;;
16577;SDS011;8401;52.528;13.340;2022-12-04T12:42:05;48.77;;;24.27;;
16577;SDS011;8401;52.528;13.340;2022-12-04T12:44:43;49.73;;;25.70;;
16577;SDS011;8401;52.528;13.340;2022-12-04T12:47:16;54.03;;;26.07;;
16577;SDS011;8401;52.528;13.340;2022-12-04T12:49:46;55.03;;;27.30;;
16577;SDS011;8401;52.528;13.340;2022-12-04T12:58:11;54.90;;;26.07;;
16577;SDS011;8401;52.528;13.340;2022-12-04T13:03:39;51.07;;;25.23;;
16577;SDS011;8401;52.528;13.340;2022-12-04T13:06:19;57.10;;;24.73;;
16577;SDS011;8401;52.528;13.340;2022-12-04T13:09:04;53.40;;;24.90;;
16577;SDS011;8401;52.528;13.340;2022-12-04T13:11:39;53.53;;;25.80;;
16577;SDS011;8401;52.528;13.340;2022-12-04T13:14:09;54.47;;;25.93;;
16577;SDS011;8401;52.528;13.340;2022-12-04T13:16:39;47.97;;;25.33;;
16577;SDS011;8401;52.528;13.340;2022-12-04T13:25:08;53.13;;;26.13;;
16577;SDS011;8401;52.528;13.340;2022-12-04T13:27:44;58.93;;;28.43;;
16577;SDS011;8401;52.528;13.340;2022-12-04T13:30:20;57.57;;;26.23;;
16577;SDS011;8401;52.528;13.340;2022-12-04T13:37:56;53.30;;;26.90;;
16577;SDS011;8401;52.528;13.340;2022-12-04T13:40:34;57.90;;;27.10;;
16577;SDS011;8401;52.528;13.340;2022-12-04T13:45:45;54.27;;;26.33;;
16577;SDS011;8401;52.528;13.340;2022-12-04T13:48:12;58.30;;;26.73;;
16577;SDS011;8401;52.528;13.340;2022-12-04T13:50:38;58.97;;;27.73;;
16577;SDS011;8401;52.528;13.340;2022-12-04T13:53:04;63.50;;;27.77;;
16577;SDS011;8401;52.528;13.340;2022-12-04T13:55:34;58.27;;;26.00;;
16577;SDS011;8401;52.528;13.340;2022-12-04T14:00:38;61.17;;;29.60;;
16577;SDS011;8401;52.528;13.340;2022-12-04T14:06:03;65.13;;;29.07;;
16577;SDS011;8401;52.528;13.340;2022-12-04T14:08:43;61.97;;;29.37;;
16577;SDS011;8401;52.528;13.340;2022-12-04T14:11:16;61.13;;;27.97;;
16577;SDS011;8401;52.528;13.340;2022-12-04T14:13:47;61.73;;;28.87;;
16577;SDS011;8401;52.528;13.340;2022-12-04T14:16:20;73.33;;;32.87;;
16577;SDS011;8401;52.528;13.340;2022-12-04T14:18:52;58.93;;;28.23;;
16577;SDS011;8401;52.528;13.340;2022-12-04T14:21:23;58.73;;;27.37;;
16577;SDS011;8401;52.528;13.340;2022-12-04T14:23:50;54.40;;;25.80;;
16577;SDS011;8401;52.528;13.340;2022-12-04T14:26:20;61.33;;;27.80;;
16577;SDS011;8401;52.528;13.340;2022-12-04T14:32:05;54.27;;;27.13;;
16577;SDS011;8401;52.528;13.340;2022-12-04T14:34:38;68.27;;;29.67;;
16577;SDS011;8401;52.528;13.340;2022-12-04T14:37:03;58.03;;;29.70;;
16577;SDS011;8401;52.528;13.340;2022-12-04T14:39:31;65.93;;;29.93;;
16577;SDS011;8401;52.528;13.340;2022-12-04T14:44:40;60.07;;;27.87;;
16577;SDS011;8401;52.528;13.340;2022-12-04T14:47:13;54.33;;;26.10;;
16577;SDS011;8401;52.528;13.340;2022-12-04T14:52:57;63.53;;;29.37;;
16577;SDS011;8401;52.528;13.340;2022-12-04T14:55:40;62.27;;;26.77;;
16577;SDS011;8401;52.528;13.340;2022-12-04T14:58:15;67.13;;;29.57;;
16577;SDS011;8401;52.528;13.340;2022-12-04T15:01:02;71.70;;;28.73;;
16577;SDS011;8401;52.528;13.340;2022-12-04T15:03:32;64.63;;;28.33;;
16577;SDS011;8401;52.528;13.340;2022-12-04T15:06:07;65.83;;;27.70;;
16577;SDS011;8401;52.528;13.340;2022-12-04T15:08:53;57.90;;;26.40;;
16577;SDS011;8401;52.528;13.340;2022-12-04T15:11:52;71.03;;;30.07;;
16577;SDS011;8401;52.528;13.340;2022-12-04T15:14:38;63.83;;;27.67;;
16577;SDS011;8401;52.528;13.340;2022-12-04T15:17:11;73.90;;;29.93;;
16577;SDS011;8401;52.528;13.340;2022-12-04T15:19:38;62.50;;;27.40;;
16577;SDS011;8401;52.528;13.340;2022-12-04T15:22:06;70.43;;;32.07;;
16577;SDS011;8401;52.528;13.340;2022-12-04T15:24:44;70.07;;;29.83;;
16577;SDS011;8401;52.528;13.340;2022-12-04T15:27:14;72.03;;;28.03;;
16577;SDS011;8401;52.528;13.340;2022-12-04T15:29:43;70.13;;;28.37;;
16577;SDS011;8401;52.528;13.340;2022-12-04T15:32:12;75.73;;;30.03;;
16577;SDS011;8401;52.528;13.340;2022-12-04T15:34:43;71.07;;;29.97;;
16577;SDS011;8401;52.528;13.340;2022-12-04T15:37:17;67.87;;;30.57;;
16577;SDS011;8401;52.528;13.340;2022-12-04T15:39:45;66.83;;;31.13;;
16577;SDS011;8401;52.528;13.340;2022-12-04T15:42:14;71.73;;;31.17;;
16577;SDS011;8401;52.528;13.340;2022-12-04T15:44:48;69.30;;;31.00;;
16577;SDS011;8401;52.528;13.340;2022-12-04T15:47:24;76.23;;;33.37;;
16577;SDS011;8401;52.528;13.340;2022-12-04T15:49:50;76.40;;;33.13;;
16577;SDS011;8401;52.528;13.340;2022-12-04T15:52:17;73.90;;;29.43;;
16577;SDS011;8401;52.528;13.340;2022-12-04T15:55:00;85.17;;;34.90;;
16577;SDS011;8401;52.528;13.340;2022-12-04T16:00:25;69.27;;;30.30;;
16577;SDS011;8401;52.528;13.340;2022-12-04T16:03:20;81.70;;;31.70;;
16577;SDS011;8401;52.528;13.340;2022-12-04T16:06:05;75.43;;;33.17;;
16577;SDS011;8401;52.528;13.340;2022-12-04T16:08:54;79.77;;;32.30;;
16577;SDS011;8401;52.528;13.340;2022-12-04T16:11:26;90.20;;;35.27;;
16577;SDS011;8401;52.528;13.340;2022-12-04T16:16:32;73.30;;;31.20;;
16577;SDS011;8401;52.528;13.340;2022-12-04T16:19:07;79.97;;;32.90;;
16577;SDS011;8401;52.528;13.340;2022-12-04T16:21:38;72.90;;;30.33;;
16577;SDS011;8401;52.528;13.340;2022-12-04T16:24:04;77.90;;;31.80;;
16577;SDS011;8401;52.528;13.340;2022-12-04T16:26:31;77.83;;;32.13;;
16577;SDS011;8401;52.528;13.340;2022-12-04T16:28:57;79.63;;;33.53;;
16577;SDS011;8401;52.528;13.340;2022-12-04T16:31:23;81.40;;;33.40;;
16577;SDS011;8401;52.528;13.340;2022-12-04T16:33:50;80.33;;;35.67;;
16577;SDS011;8401;52.528;13.340;2022-12-04T16:36:16;82.70;;;33.00;;
16577;SDS011;8401;52.528;13.340;2022-12-04T16:38:41;77.67;;;32.73;;
16577;SDS011;8401;52.528;13.340;2022-12-04T16:41:11;81.07;;;34.13;;
16577;SDS011;8401;52.528;13.340;2022-12-04T16:43:39;79.83;;;33.97;;
16577;SDS011;8401;52.528;13.340;2022-12-04T16:46:04;82.13;;;33.97;;
16577;SDS011;8401;52.528;13.340;2022-12-04T16:48:30;83.17;;;36.10;;
16577;SDS011;8401;52.528;13.340;2022-12-04T16:50:59;86.00;;;34.63;;
16577;SDS011;8401;52.528;13.340;2022-12-04T16:53:25;88.57;;;34.20;;
16577;SDS011;8401;52.528;13.340;2022-12-04T16:55:51;94.33;;;34.97;;
16577;SDS011;8401;52.528;13.340;2022-12-04T16:58:17;89.53;;;35.03;;
16577;SDS011;8401;52.528;13.340;2022-12-04T17:00:45;89.53;;;33.97;;
16577;SDS011;8401;52.528;13.340;2022-12-04T17:03:17;93.50;;;34.70;;